createdAt,value
2022-08-16T00:00:03.512Z,93733.00
2022-08-16T00:02:33.556Z,93726.03
2022-08-16T00:05:01.002Z,93729.47
2022-08-16T00:07:30.392Z,93733.72
2022-08-16T00:09:59.034Z,93739.53
2022-08-16T00:12:30.227Z,93736.78
2022-08-16T00:15:00.001Z,93741.81
2022-08-16T00:17:26.994Z,93744.53
2022-08-16T00:19:55.577Z,93748.00
2022-08-16T00:22:24.723Z,93745.28
2022-08-16T00:24:54.548Z,93749.56
2022-08-16T00:27:23.034Z,93753.03
2022-08-16T00:30:00.493Z,93748.34
2022-08-16T00:32:32.986Z,93752.59
2022-08-16T00:35:01.643Z,93744.88
2022-08-16T00:37:57.256Z,93746.81
2022-08-16T00:40:34.755Z,93739.44
2022-08-16T00:43:11.919Z,93735.94
2022-08-16T00:46:01.140Z,93735.16
2022-08-16T00:48:48.088Z,93722.72
2022-08-16T00:51:17.459Z,93727.75
2022-08-16T00:53:45.617Z,93726.19
2022-08-16T00:56:57.007Z,93736.63
2022-08-16T00:59:05.248Z,93732.00
2022-08-16T01:01:32.865Z,93739.38
2022-08-16T01:04:03.233Z,93747.91
2022-08-16T01:06:48.894Z,93749.47
2022-08-16T01:09:20.541Z,93746.34
2022-08-16T01:11:55.199Z,93747.13
2022-08-16T01:14:29.827Z,93747.16
2022-08-16T01:16:59.340Z,93745.19
2022-08-16T01:19:33.339Z,93749.81
2022-08-16T01:22:47.644Z,93749.06
2022-08-16T01:25:00.706Z,93754.44
2022-08-16T01:27:39.182Z,93762.97
2022-08-16T01:30:20.292Z,93752.16
2022-08-16T01:33:02.007Z,93750.56
2022-08-16T01:35:57.981Z,93753.94
2022-08-16T01:38:31.278Z,93747.63
2022-08-16T01:41:19.291Z,93755.59
2022-08-16T01:43:53.866Z,93753.19
2022-08-16T01:46:39.117Z,93752.69
2022-08-16T01:49:18.909Z,93749.94
2022-08-16T01:51:53.440Z,93748.34
2022-08-16T01:54:30.899Z,93739.09
2022-08-16T01:56:59.602Z,93741.06
2022-08-16T01:59:28.026Z,93733.72
2022-08-16T02:02:00.043Z,93737.94
2022-08-16T02:04:48.017Z,93742.94
2022-08-16T02:07:18.994Z,93739.91
2022-08-16T02:09:57.101Z,93741.09
2022-08-16T02:12:40.137Z,93740.69
2022-08-16T02:15:24.890Z,93739.81
2022-08-16T02:17:54.695Z,93742.56
2022-08-16T02:20:26.475Z,93741.47
2022-08-16T02:22:59.913Z,93737.66
2022-08-16T02:25:51.145Z,93733.81
2022-08-16T02:28:17.389Z,93735.31
2022-08-16T02:30:50.675Z,93724.47
2022-08-16T02:33:19.161Z,93729.47
2022-08-16T02:35:54.271Z,93726.31
2022-08-16T02:38:25.264Z,93731.28
2022-08-16T02:40:54.671Z,93734.41
2022-08-16T02:43:26.840Z,93739.03
2022-08-16T02:45:56.528Z,93730.88
2022-08-16T02:48:29.693Z,93735.09
2022-08-16T02:51:06.202Z,93727.38
2022-08-16T02:53:43.390Z,93733.53
2022-08-16T02:56:14.802Z,93733.59
2022-08-16T02:58:44.163Z,93726.69
2022-08-16T03:01:24.890Z,93724.81
2022-08-16T03:04:39.727Z,93725.56
2022-08-16T03:06:56.696Z,93723.63
2022-08-16T03:09:38.022Z,93718.66
2022-08-16T03:12:05.835Z,93726.78
2022-08-16T03:14:34.562Z,93719.06
2022-08-16T03:17:03.077Z,93722.16
2022-08-16T03:19:47.116Z,93714.81
2022-08-16T03:22:19.495Z,93724.88
2022-08-16T03:25:00.929Z,93720.25
2022-08-16T03:27:31.334Z,93711.78
2022-08-16T03:30:16.937Z,93709.47
2022-08-16T03:32:51.814Z,93702.13
2022-08-16T03:35:33.025Z,93702.16
2022-08-16T03:38:34.159Z,93704.13
2022-08-16T03:40:56.221Z,93699.50
2022-08-16T03:43:51.832Z,93702.22
2022-08-16T03:46:48.374Z,93701.94
2022-08-16T03:49:02.215Z,93696.28
2022-08-16T03:51:29.056Z,93695.34
2022-08-16T03:54:01.909Z,93697.59
2022-08-16T03:56:31.568Z,93708.31
2022-08-16T03:59:00.021Z,93705.00
2022-08-16T04:01:32.669Z,93701.81
2022-08-16T04:04:01.403Z,93707.41
2022-08-16T04:06:29.427Z,93701.25
2022-08-16T04:08:56.267Z,93712.34
2022-08-16T04:11:24.643Z,93717.09
2022-08-16T04:14:00.597Z,93713.75
2022-08-16T04:16:39.698Z,93712.69
2022-08-16T04:19:31.646Z,93713.00
2022-08-16T04:22:00.899Z,93711.63
2022-08-16T04:24:32.293Z,93705.97
2022-08-16T04:26:59.672Z,93713.00
2022-08-16T04:29:27.888Z,93724.25
2022-08-16T04:32:13.841Z,93724.66
2022-08-16T04:34:43.382Z,93715.84
2022-08-16T04:37:12.234Z,93718.59
2022-08-16T04:39:47.339Z,93721.31
2022-08-16T04:42:26.528Z,93723.66
2022-08-16T04:44:58.527Z,93725.06
2022-08-16T04:47:35.338Z,93732.16
2022-08-16T04:50:12.004Z,93732.06
2022-08-16T04:52:57.924Z,93737.00
2022-08-16T04:55:37.909Z,93734.56
2022-08-16T04:58:44.057Z,93744.50
2022-08-16T05:00:57.470Z,93747.06
2022-08-16T05:03:24.762Z,93744.59
2022-08-16T05:05:59.373Z,93734.31
2022-08-16T05:08:32.772Z,93748.75
2022-08-16T05:11:08.863Z,93756.25
2022-08-16T05:13:41.811Z,93752.81
2022-08-16T05:16:21.797Z,93752.88
2022-08-16T05:18:57.026Z,93742.53
2022-08-16T05:21:38.150Z,93746.50
2022-08-16T05:24:09.137Z,93755.03
2022-08-16T05:26:40.920Z,93751.97
2022-08-16T05:29:15.302Z,93749.69
2022-08-16T05:31:55.897Z,93747.44
2022-08-16T05:34:22.799Z,93746.75
2022-08-16T05:36:57.234Z,93753.06
2022-08-16T05:39:29.420Z,93755.47
2022-08-16T05:42:01.242Z,93763.34
2022-08-16T05:44:28.542Z,93753.69
2022-08-16T05:47:00.363Z,93759.13
2022-08-16T05:49:38.488Z,93761.47
2022-08-16T05:52:17.310Z,93762.22
2022-08-16T05:55:00.999Z,93769.22
2022-08-16T05:57:35.531Z,93763.06
2022-08-16T06:00:08.946Z,93766.53
2022-08-16T06:02:45.648Z,93765.38
2022-08-16T06:05:41.628Z,93774.69
2022-08-16T06:08:09.825Z,93772.34
2022-08-16T06:11:10.445Z,93761.81
2022-08-16T06:13:42.356Z,93773.75
2022-08-16T06:16:18.194Z,93772.97
2022-08-16T06:18:47.961Z,93770.25
2022-08-16T06:21:23.808Z,93765.59
2022-08-16T06:23:54.896Z,93773.00
2022-08-16T06:26:23.576Z,93765.59
2022-08-16T06:28:50.392Z,93769.38
2022-08-16T06:31:33.349Z,93770.44
2022-08-16T06:34:55.495Z,93767.22
2022-08-16T06:37:02.198Z,93764.41
2022-08-16T06:39:34.354Z,93771.94
2022-08-16T06:42:06.314Z,93774.88
2022-08-16T06:44:56.959Z,93768.22
2022-08-16T06:47:54.396Z,93766.06
2022-08-16T06:50:28.937Z,93765.09
2022-08-16T06:53:19.850Z,93766.75
2022-08-16T06:55:59.358Z,93766.31
2022-08-16T06:58:35.236Z,93761.72
2022-08-16T07:01:09.865Z,93768.66
2022-08-16T07:03:55.847Z,93774.63
2022-08-16T07:06:28.075Z,93779.16
2022-08-16T07:09:00.186Z,93774.56
2022-08-16T07:11:47.546Z,93777.63
2022-08-16T07:14:25.217Z,93780.03
2022-08-16T07:16:57.835Z,93776.22
2022-08-16T07:20:01.494Z,93790.69
2022-08-16T07:22:38.767Z,93787.44
2022-08-16T07:25:03.761Z,93787.47
2022-08-16T07:27:33.684Z,93791.50
2022-08-16T07:30:45.481Z,93787.84
2022-08-16T07:32:57.019Z,93781.84
2022-08-16T07:35:24.866Z,93791.03
2022-08-16T07:37:51.669Z,93784.72
2022-08-16T07:40:49.536Z,93783.34
2022-08-16T07:43:12.923Z,93785.28
2022-08-16T07:45:42.224Z,93781.13
2022-08-16T07:48:11.875Z,93782.00
2022-08-16T07:50:56.789Z,93786.47
2022-08-16T07:53:31.117Z,93792.44
2022-08-16T07:56:00.339Z,93800.19
2022-08-16T07:58:36.316Z,93781.63
2022-08-16T08:01:14.980Z,93788.16
2022-08-16T08:03:49.278Z,93791.59
2022-08-16T08:06:25.077Z,93793.25
2022-08-16T08:08:57.280Z,93787.53
2022-08-16T08:11:28.023Z,93785.03
2022-08-16T08:13:57.627Z,93790.34
2022-08-16T08:16:32.694Z,93790.25
2022-08-16T08:19:02.693Z,93794.13
2022-08-16T08:21:56.627Z,93803.38
2022-08-16T08:24:31.839Z,93815.50
2022-08-16T08:27:02.335Z,93815.50
2022-08-16T08:29:37.138Z,93815.00
2022-08-16T08:32:57.726Z,93823.59
2022-08-16T08:35:03.205Z,93809.53
2022-08-16T08:37:55.751Z,93820.16
2022-08-16T08:40:27.623Z,93809.88
2022-08-16T08:43:12.259Z,93809.38
2022-08-16T08:45:55.721Z,93802.88
2022-08-16T08:48:33.341Z,93819.72
2022-08-16T08:51:09.211Z,93820.78
2022-08-16T08:53:47.190Z,93823.19
2022-08-16T08:56:26.921Z,93823.53
2022-08-16T08:59:12.993Z,93820.09
2022-08-16T09:01:43.175Z,93823.94
2022-08-16T09:04:26.946Z,93824.09
2022-08-16T09:06:55.542Z,93830.97
2022-08-16T09:09:23.657Z,93822.13
2022-08-16T09:12:06.638Z,93820.06
2022-08-16T09:14:49.446Z,93814.66
2022-08-16T09:17:45.590Z,93815.63
2022-08-16T09:20:13.572Z,93824.28
2022-08-16T09:22:40.648Z,93821.75
2022-08-16T09:25:11.001Z,93814.94
2022-08-16T09:27:57.219Z,93827.03
2022-08-16T09:30:34.052Z,93817.66
2022-08-16T09:33:06.709Z,93817.44
2022-08-16T09:35:37.297Z,93816.34
2022-08-16T09:38:05.318Z,93813.34
2022-08-16T09:40:42.677Z,93819.41
2022-08-16T09:43:21.096Z,93820.28
2022-08-16T09:45:58.788Z,93817.88
2022-08-16T09:48:44.419Z,93811.34
2022-08-16T09:51:15.592Z,93805.63
2022-08-16T09:53:43.190Z,93802.91
2022-08-16T09:56:31.613Z,93809.91
2022-08-16T09:59:05.401Z,93806.84
2022-08-16T10:01:43.542Z,93806.09
2022-08-16T10:04:34.356Z,93802.84
2022-08-16T10:09:45.076Z,93785.97
2022-08-16T10:12:34.378Z,93794.38
2022-08-16T10:15:01.040Z,93803.78
2022-08-16T10:17:28.816Z,93797.22
2022-08-16T10:19:56.198Z,93803.38
2022-08-16T10:22:23.270Z,93808.03
2022-08-16T10:24:55.950Z,93803.13
2022-08-16T10:27:45.700Z,93806.47
2022-08-16T10:30:25.547Z,93808.88
2022-08-16T10:32:55.204Z,93812.00
2022-08-16T10:35:22.957Z,93817.03
2022-08-16T10:37:52.164Z,93816.69
2022-08-16T10:40:29.520Z,93811.53
2022-08-16T10:43:00.323Z,93802.94
2022-08-16T10:45:36.520Z,93810.72
2022-08-16T10:48:27.261Z,93812.53
2022-08-16T10:50:53.615Z,93820.16
2022-08-16T10:53:21.683Z,93814.97
2022-08-16T10:55:48.618Z,93833.59
2022-08-16T10:58:33.947Z,93824.09
2022-08-16T11:03:57.323Z,93825.72
2022-08-16T11:06:26.830Z,93826.16
2022-08-16T11:14:29.894Z,93825.69
2022-08-16T11:17:02.170Z,93823.66
2022-08-16T11:19:30.457Z,93818.09
2022-08-16T11:22:23.321Z,93821.78
2022-08-16T11:24:44.631Z,93836.22
2022-08-16T11:27:19.583Z,93838.00
2022-08-16T11:29:46.748Z,93828.75
2022-08-16T11:32:13.384Z,93836.91
2022-08-16T11:35:09.998Z,93825.09
2022-08-16T11:38:24.102Z,93839.53
2022-08-16T11:40:24.588Z,93832.09
2022-08-16T11:42:59.360Z,93826.44
2022-08-16T11:45:26.036Z,93826.13
2022-08-16T11:47:53.607Z,93816.75
2022-08-16T11:50:20.832Z,93825.13
2022-08-16T11:52:47.477Z,93820.31
2022-08-16T11:55:14.256Z,93818.97
2022-08-16T11:57:41.330Z,93818.38
2022-08-16T12:00:42.653Z,93826.94
2022-08-16T12:03:00.897Z,93817.66
2022-08-16T12:05:28.686Z,93814.50
2022-08-16T12:07:55.904Z,93814.78
2022-08-16T12:10:29.082Z,93807.41
2022-08-16T12:12:57.973Z,93816.78
2022-08-16T12:15:29.293Z,93819.81
2022-08-16T12:17:59.172Z,93820.56
2022-08-16T12:20:30.331Z,93823.41
2022-08-16T12:22:59.562Z,93815.53
2022-08-16T12:25:29.294Z,93810.81
2022-08-16T12:27:57.151Z,93812.09
2022-08-16T12:30:34.811Z,93805.53
2022-08-16T12:33:07.634Z,93809.34
2022-08-16T12:35:37.834Z,93808.44
2022-08-16T12:38:38.268Z,93808.97
2022-08-16T12:40:57.022Z,93807.19
2022-08-16T12:43:25.371Z,93808.91
2022-08-16T12:45:54.343Z,93798.72
2022-08-16T12:48:44.782Z,93800.47
2022-08-16T12:51:19.381Z,93796.38
2022-08-16T12:53:47.301Z,93794.47
2022-08-16T12:56:14.610Z,93790.63
2022-08-16T12:58:48.529Z,93790.00
2022-08-16T13:01:23.433Z,93791.03
2022-08-16T13:04:08.297Z,93794.56
2022-08-16T13:06:40.035Z,93789.69
2022-08-16T13:09:20.749Z,93784.09
2022-08-16T13:12:01.647Z,93788.78
2022-08-16T13:14:39.101Z,93782.00
2022-08-16T13:17:09.036Z,93780.25
2022-08-16T13:20:06.161Z,93776.72
2022-08-16T13:22:24.583Z,93778.59
2022-08-16T13:24:53.463Z,93779.53
2022-08-16T13:27:59.166Z,93778.63
2022-08-16T13:30:21.705Z,93772.13
2022-08-16T13:32:55.302Z,93773.28
2022-08-16T13:35:24.032Z,93779.53
2022-08-16T13:37:52.100Z,93772.28
2022-08-16T13:40:21.234Z,93778.94
2022-08-16T13:42:49.643Z,93783.38
2022-08-16T13:45:17.633Z,93781.41
2022-08-16T13:47:48.576Z,93785.03
2022-08-16T13:50:30.993Z,93782.22
2022-08-16T13:53:07.693Z,93778.06
2022-08-16T13:55:34.780Z,93767.19
2022-08-16T13:58:37.290Z,93768.22
2022-08-16T14:00:52.779Z,93771.84
2022-08-16T14:03:21.146Z,93758.94
2022-08-16T14:05:48.638Z,93756.75
2022-08-16T14:08:16.575Z,93758.84
2022-08-16T14:10:44.292Z,93760.13
2022-08-16T14:13:13.649Z,93755.00
2022-08-16T14:15:47.617Z,93758.63
2022-08-16T14:18:17.378Z,93761.44
2022-08-16T14:20:48.359Z,93760.69
2022-08-16T14:23:15.697Z,93750.09
2022-08-16T14:25:42.627Z,93755.69
2022-08-16T14:28:09.642Z,93764.41
2022-08-16T14:30:38.036Z,93753.13
2022-08-16T14:33:07.425Z,93753.16
2022-08-16T14:35:48.579Z,93761.69
2022-08-16T14:38:19.226Z,93761.53
2022-08-16T14:40:55.471Z,93750.47
2022-08-16T14:43:25.922Z,93750.91
2022-08-16T14:45:56.603Z,93735.81
2022-08-16T14:48:26.097Z,93740.81
2022-08-16T14:50:54.392Z,93737.28
2022-08-16T14:53:22.979Z,93742.16
2022-08-16T14:55:49.712Z,93735.59
2022-08-16T14:58:19.497Z,93738.38
2022-08-16T15:00:50.710Z,93732.81
2022-08-16T15:03:21.860Z,93728.53
2022-08-16T15:05:49.560Z,93743.00
2022-08-16T15:08:21.262Z,93740.38
2022-08-16T15:11:03.057Z,93747.00
2022-08-16T15:13:29.747Z,93747.16
2022-08-16T15:16:01.907Z,93747.94
2022-08-16T15:18:31.987Z,93750.69
2022-08-16T15:21:00.654Z,93745.81
2022-08-16T15:23:28.424Z,93745.19
2022-08-16T15:26:02.837Z,93749.03
2022-08-16T15:28:32.792Z,93748.09
2022-08-16T15:31:06.446Z,93754.38
2022-08-16T15:33:42.157Z,93751.50
2022-08-16T15:36:09.588Z,93749.47
2022-08-16T15:39:02.254Z,93748.22
2022-08-16T15:41:42.758Z,93753.75
2022-08-16T15:44:17.979Z,93749.16
2022-08-16T15:46:56.715Z,93746.72
2022-08-16T15:49:38.134Z,93755.44
2022-08-16T15:52:29.583Z,93752.44
2022-08-16T15:54:59.390Z,93753.19
2022-08-16T15:57:36.802Z,93752.44
2022-08-16T16:00:14.398Z,93744.44
2022-08-16T16:02:43.028Z,93752.53
2022-08-16T16:05:10.673Z,93749.16
2022-08-16T16:07:40.960Z,93749.28
2022-08-16T16:10:22.726Z,93741.81
2022-08-16T16:12:59.702Z,93744.88
2022-08-16T16:15:29.784Z,93746.13
2022-08-16T16:17:57.029Z,93747.41
2022-08-16T16:20:27.453Z,93746.44
2022-08-16T16:23:03.281Z,93739.81
2022-08-16T16:25:31.625Z,93738.41
2022-08-16T16:27:59.808Z,93742.38
2022-08-16T16:30:38.190Z,93735.34
2022-08-16T16:33:20.431Z,93739.88
2022-08-16T16:35:48.019Z,93746.47
2022-08-16T16:38:30.743Z,93737.88
2022-08-16T16:40:59.811Z,93738.88
2022-08-16T16:43:31.351Z,93731.06
2022-08-16T16:45:59.195Z,93739.00
2022-08-16T16:48:29.833Z,93735.94
2022-08-16T16:51:09.930Z,93736.34
2022-08-16T16:53:41.335Z,93733.72
2022-08-16T16:56:19.539Z,93736.72
2022-08-16T16:58:57.670Z,93735.78
2022-08-16T17:01:59.507Z,93731.50
2022-08-16T17:04:31.768Z,93732.22
2022-08-16T17:07:01.132Z,93731.47
2022-08-16T17:09:27.867Z,93733.13
2022-08-16T17:11:55.962Z,93734.00
2022-08-16T17:14:33.036Z,93732.09
2022-08-16T17:17:06.796Z,93738.81
2022-08-16T17:19:40.201Z,93733.88
2022-08-16T17:22:14.303Z,93746.88
2022-08-16T17:24:57.263Z,93743.28
2022-08-16T17:27:32.858Z,93748.44
2022-08-16T17:30:29.516Z,93750.22
2022-08-16T17:33:11.334Z,93746.94
2022-08-16T17:35:55.129Z,93753.75
2022-08-16T17:38:39.083Z,93757.06
2022-08-16T17:41:10.306Z,93749.47
2022-08-16T17:43:43.989Z,93743.22
2022-08-16T17:46:50.977Z,93746.53
2022-08-16T17:49:00.019Z,93744.06
2022-08-16T17:51:27.262Z,93754.06
2022-08-16T17:53:54.763Z,93754.75
2022-08-16T17:56:21.808Z,93748.03
2022-08-16T17:58:48.611Z,93752.13
2022-08-16T18:01:15.643Z,93746.50
2022-08-16T18:04:07.120Z,93747.91
2022-08-16T18:06:29.458Z,93744.47
2022-08-16T18:09:02.619Z,93740.91
2022-08-16T18:11:33.916Z,93749.00
2022-08-16T18:14:01.120Z,93740.53
2022-08-16T18:16:27.853Z,93743.03
2022-08-16T18:18:54.569Z,93749.31
2022-08-16T18:21:40.216Z,93751.63
2022-08-16T18:24:07.107Z,93755.56
2022-08-16T18:26:34.287Z,93755.66
2022-08-16T18:29:01.344Z,93755.84
2022-08-16T18:31:28.145Z,93756.41
2022-08-16T18:33:56.003Z,93753.75
2022-08-16T18:36:24.266Z,93756.44
2022-08-16T18:38:53.038Z,93764.91
2022-08-16T18:41:23.166Z,93761.69
2022-08-16T18:44:24.217Z,93770.81
2022-08-16T18:46:42.200Z,93769.09
2022-08-16T18:49:09.225Z,93776.38
2022-08-16T18:51:36.949Z,93776.56
2022-08-16T18:54:04.586Z,93778.78
2022-08-16T18:56:55.249Z,93784.41
2022-08-16T18:59:18.572Z,93785.91
2022-08-16T19:01:46.527Z,93787.00
2022-08-16T19:04:55.212Z,93781.22
2022-08-16T19:07:01.276Z,93790.41
2022-08-16T19:09:28.226Z,93791.22
2022-08-16T19:11:54.905Z,93804.22
2022-08-16T19:14:26.885Z,93799.66
2022-08-16T19:16:53.865Z,93799.78
2022-08-16T19:19:22.747Z,93794.88
2022-08-16T19:21:49.492Z,93798.19
2022-08-16T19:24:18.149Z,93796.56
2022-08-16T19:26:45.481Z,93794.78
2022-08-16T19:29:12.373Z,93800.00
2022-08-16T19:31:40.317Z,93800.44
2022-08-16T19:34:08.317Z,93802.81
2022-08-16T19:36:38.452Z,93806.75
2022-08-16T19:39:10.940Z,93807.16
2022-08-16T19:41:42.740Z,93807.16
2022-08-16T19:44:09.807Z,93805.56
2022-08-16T19:46:37.798Z,93807.56
2022-08-16T19:49:05.101Z,93809.25
2022-08-16T19:51:32.058Z,93814.41
2022-08-16T19:53:58.793Z,93809.94
2022-08-16T19:56:26.892Z,93811.56
2022-08-16T20:01:43.221Z,93808.28
2022-08-16T20:04:14.391Z,93812.25
2022-08-16T20:06:42.252Z,93815.44
2022-08-16T20:09:10.996Z,93815.09
2022-08-16T20:11:41.225Z,93816.34
2022-08-16T20:14:07.968Z,93814.78
2022-08-16T20:16:34.624Z,93816.81
2022-08-16T20:19:01.381Z,93811.84
2022-08-16T20:21:28.461Z,93809.56
2022-08-16T20:24:09.883Z,93810.44
2022-08-16T20:26:41.967Z,93820.31
2022-08-16T20:29:08.735Z,93823.47
2022-08-16T20:31:35.781Z,93822.38
2022-08-16T20:34:02.933Z,93825.94
2022-08-16T20:36:29.963Z,93824.00
2022-08-16T20:38:59.831Z,93820.53
2022-08-16T20:41:27.351Z,93819.81
2022-08-16T20:43:54.953Z,93816.69
2022-08-16T20:46:24.286Z,93822.91
2022-08-16T20:48:51.184Z,93826.09
2022-08-16T20:51:18.458Z,93827.31
2022-08-16T20:53:45.394Z,93833.53
2022-08-16T20:56:13.368Z,93832.25
2022-08-16T20:58:40.384Z,93821.75
2022-08-16T21:01:08.390Z,93828.72
2022-08-16T21:03:36.700Z,93832.59
2022-08-16T21:06:04.280Z,93830.31
2022-08-16T21:08:52.338Z,93831.97
2022-08-16T21:11:21.715Z,93830.13
2022-08-16T21:13:48.513Z,93834.09
2022-08-16T21:16:17.320Z,93830.66
2022-08-16T21:18:44.187Z,93834.66
2022-08-16T21:21:12.930Z,93839.34
2022-08-16T21:23:41.352Z,93838.56
2022-08-16T21:26:10.931Z,93839.75
2022-08-16T21:28:43.339Z,93840.91
2022-08-16T21:31:12.414Z,93834.69
2022-08-16T21:33:39.840Z,93846.03
2022-08-16T21:36:07.377Z,93838.66
2022-08-16T21:38:34.173Z,93837.88
2022-08-16T21:41:03.009Z,93847.19
2022-08-16T21:43:33.539Z,93838.63
2022-08-16T21:46:02.580Z,93839.81
2022-08-16T21:48:33.658Z,93844.53
2022-08-16T21:51:05.530Z,93847.25
2022-08-16T21:53:32.260Z,93849.63
2022-08-16T21:56:00.349Z,93847.31
2022-08-16T21:58:27.667Z,93856.69
2022-08-16T22:00:54.714Z,93846.59
2022-08-16T22:03:21.544Z,93849.72
2022-08-16T22:06:00.135Z,93859.06
2022-08-16T22:08:35.891Z,93853.66
2022-08-16T22:11:18.823Z,93857.56
2022-08-16T22:13:57.635Z,93847.47
2022-08-16T22:16:29.228Z,93848.22
2022-08-16T22:18:57.755Z,93846.72
2022-08-16T22:21:26.641Z,93856.06
2022-08-16T22:23:55.577Z,93856.16
2022-08-16T22:26:31.771Z,93851.91
2022-08-16T22:29:01.361Z,93863.16
2022-08-16T22:31:28.850Z,93853.06
2022-08-16T22:33:56.831Z,93857.03
2022-08-16T22:36:23.885Z,93853.19
2022-08-16T22:38:59.583Z,93849.28
2022-08-16T22:41:32.242Z,93850.81
2022-08-16T22:44:00.997Z,93853.13
2022-08-16T22:46:28.359Z,93853.47
2022-08-16T22:48:55.096Z,93844.53
2022-08-16T22:51:24.313Z,93851.59
2022-08-16T22:53:52.768Z,93857.84
2022-08-16T22:56:20.113Z,93857.13
2022-08-16T22:58:47.133Z,93854.03
2022-08-16T23:01:14.653Z,93858.28
2022-08-16T23:03:42.226Z,93850.84
2022-08-16T23:06:10.436Z,93856.22
2022-08-16T23:08:40.779Z,93856.19
2022-08-16T23:11:15.141Z,93856.94
2022-08-16T23:13:53.241Z,93859.28
2022-08-16T23:16:33.330Z,93850.41
2022-08-16T23:19:08.104Z,93855.13
2022-08-16T23:21:37.645Z,93845.47
2022-08-16T23:24:05.700Z,93851.72
2022-08-16T23:26:43.985Z,93844.78
2022-08-16T23:29:23.249Z,93848.66
2022-08-16T23:31:56.787Z,93837.03
2022-08-16T23:34:24.283Z,93842.88
2022-08-16T23:36:51.129Z,93839.78
2022-08-16T23:39:17.792Z,93841.72
2022-08-16T23:41:44.563Z,93838.25
2022-08-16T23:44:56.817Z,93838.66
2022-08-16T23:46:57.964Z,93829.72
2022-08-16T23:49:57.019Z,93823.91
2022-08-16T23:52:11.649Z,93820.06
2022-08-16T23:54:38.559Z,93830.91
2022-08-16T23:57:05.355Z,93828.59
2022-08-16T23:59:38.049Z,93819.28
